Archival Weather

Aeroparque Jorge Newbery

Buenos Aires, Argentina (SABE)

Report from: Sunday, March 19, 2023 7:00 AM -03
Current time: Tuesday, July 16, 2024 11:29 AM -03

Current weather – Weather history – Daily summaries
Weather forecast

Temperature26.0°C (78.8°F)
Dew point24.0°C (75.2°F)
Winds 8 kts (4.1 m/s, 9.2 mph) North (360°)
Visibility6.2 mi. (10 km)
Clouds Few clouds 1,100 ft. (335 m)
Scattered clouds 10,000 ft. (3,048 m)
Altimeter29.85 in.Hg (1011 mB)
Relative humidity89 %
Density altitude1,746 ft. (532 m)
Remarks No significant changes expected in the next two hours
Flight conditions Visual Meteorological Conditions
Raw dataSABE 191000Z 36008KT 9999 FEW011 SCT100 26/24 Q1011 NOSIG RMK PP000
An error has occurred. This application may no longer respond until reloaded. Reload 🗙